الصفحة الرئيسية
METAR-TAF:

METAR-TAF

مطار :

Nelson Lagoon, ألاسكا, الولايات المتحدة

دائرة عرض: 56-00-27N, خط طول: 161-09-37W, ارتفاع: 4 متر

مراقبة الطقس الحالي

تاريخ ووقت الإصدار 47 دقيقة قبل الساعة 23:56UTC
ريح 8 عقدة من الغرب/الشمال الغربي
درجة الحرارة 4°درجة مئوية
الرطوبة 87%
ضغط 1022 hPa
الرؤية: 16.1 كم
ملبد بالغيوم على ارتفاع 700 قدم

METAR: PAOU 122356Z AUTO 30008KT 10SM OVC007 04/02 A3018 RMK AO2 SLP220 6//// T00390022 10044 20028 52007 PNO $

زمن: 16:43 (00:43 UTC)


TAF: مفقودة

أرصاد الطقس والتوقعات من أكثر من 4000 مطار (تقارير الطقس للمطار METAR والتنبؤ بالطقس بالمطارTAF).

المحطات المتاحة هي النقط الصفراء والحمراء على الخريطة.

حرك المؤشر فوق النقطة لمعرفة اسم المحطة.

ثم انقر لمعرفة أرصاد وتوقعات الطقس.

لتغيير الخارطة: اضغط على الأزرار الخضراء مع رمز الصليب الأسود للتكبير. على الزر الأخضر مع شرطة للتصغير، أو على الأسهم الخضراء للخرائط المجاورة.


METAR-TAF: